sensor_id;sensor_type;location;lat;lon;timestamp;pressure;altitude;pressure_sealevel;temperature;humidity
52935;BME280;38802;50.198;19.796;2023-04-15T00:00:59;94906.02;;;8.42;87.45
52935;BME280;38802;50.198;19.796;2023-04-15T00:03:26;94915.23;;;8.40;87.08
52935;BME280;38802;50.198;19.796;2023-04-15T00:05:54;94918.77;;;8.39;86.79
52935;BME280;38802;50.198;19.796;2023-04-15T00:08:20;94921.71;;;8.39;87.30
52935;BME280;38802;50.198;19.796;2023-04-15T00:10:47;94925.66;;;8.38;87.32
52935;BME280;38802;50.198;19.796;2023-04-15T00:13:14;94924.41;;;8.37;87.28
52935;BME280;38802;50.198;19.796;2023-04-15T00:15:41;94925.12;;;8.32;87.58
52935;BME280;38802;50.198;19.796;2023-04-15T00:18:08;94922.48;;;8.29;87.67
52935;BME280;38802;50.198;19.796;2023-04-15T00:20:35;94927.64;;;8.28;87.67
52935;BME280;38802;50.198;19.796;2023-04-15T00:23:02;94935.22;;;8.26;87.43
52935;BME280;38802;50.198;19.796;2023-04-15T00:25:29;94941.75;;;8.25;87.78
52935;BME280;38802;50.198;19.796;2023-04-15T00:27:55;94943.90;;;8.24;87.81
52935;BME280;38802;50.198;19.796;2023-04-15T00:30:22;94944.45;;;8.24;88.10
52935;BME280;38802;50.198;19.796;2023-04-15T00:32:49;94941.88;;;8.21;88.21
52935;BME280;38802;50.198;19.796;2023-04-15T00:35:17;94941.80;;;8.20;87.82
52935;BME280;38802;50.198;19.796;2023-04-15T00:37:44;94945.32;;;8.22;87.63
52935;BME280;38802;50.198;19.796;2023-04-15T00:40:12;94939.27;;;8.19;87.52
52935;BME280;38802;50.198;19.796;2023-04-15T00:42:39;94939.26;;;8.22;87.61
52935;BME280;38802;50.198;19.796;2023-04-15T00:45:06;94933.46;;;8.20;87.45
52935;BME280;38802;50.198;19.796;2023-04-15T00:47:34;94929.48;;;8.19;87.54
52935;BME280;38802;50.198;19.796;2023-04-15T00:50:02;94924.30;;;8.18;87.41
52935;BME280;38802;50.198;19.796;2023-04-15T00:52:30;94927.99;;;8.18;87.38
52935;BME280;38802;50.198;19.796;2023-04-15T00:54:58;94928.54;;;8.18;87.32
52935;BME280;38802;50.198;19.796;2023-04-15T00:57:25;94927.17;;;8.17;87.11
52935;BME280;38802;50.198;19.796;2023-04-15T00:59:54;94933.94;;;8.19;86.90
52935;BME280;38802;50.198;19.796;2023-04-15T01:02:21;94928.77;;;8.21;86.89
52935;BME280;38802;50.198;19.796;2023-04-15T01:04:49;94922.69;;;8.25;86.84
52935;BME280;38802;50.198;19.796;2023-04-15T01:07:16;94918.48;;;8.26;86.71
52935;BME280;38802;50.198;19.796;2023-04-15T01:09:43;94913.83;;;8.24;86.71
52935;BME280;38802;50.198;19.796;2023-04-15T01:12:13;94913.41;;;8.22;86.48
52935;BME280;38802;50.198;19.796;2023-04-15T01:14:41;94914.76;;;8.27;86.49
52935;BME280;38802;50.198;19.796;2023-04-15T01:17:08;94929.83;;;8.28;86.55
52935;BME280;38802;50.198;19.796;2023-04-15T01:19:37;94943.96;;;8.25;86.07
52935;BME280;38802;50.198;19.796;2023-04-15T01:22:05;94947.33;;;8.20;86.07
52935;BME280;38802;50.198;19.796;2023-04-15T01:24:31;94948.96;;;8.19;86.18
52935;BME280;38802;50.198;19.796;2023-04-15T01:27:01;94948.83;;;8.27;86.34
52935;BME280;38802;50.198;19.796;2023-04-15T01:29:31;94947.52;;;8.30;85.98
52935;BME280;38802;50.198;19.796;2023-04-15T01:31:58;94945.37;;;8.29;85.93
52935;BME280;38802;50.198;19.796;2023-04-15T01:34:26;94938.34;;;8.30;85.98
52935;BME280;38802;50.198;19.796;2023-04-15T01:36:53;94937.23;;;8.29;85.73
52935;BME280;38802;50.198;19.796;2023-04-15T01:39:21;94948.44;;;8.27;85.86
52935;BME280;38802;50.198;19.796;2023-04-15T01:41:47;94954.34;;;8.27;85.64
52935;BME280;38802;50.198;19.796;2023-04-15T01:44:15;94963.66;;;8.27;85.58
52935;BME280;38802;50.198;19.796;2023-04-15T01:46:42;94968.05;;;8.27;85.50
52935;BME280;38802;50.198;19.796;2023-04-15T01:49:08;94975.85;;;8.27;85.33
52935;BME280;38802;50.198;19.796;2023-04-15T01:51:35;94973.67;;;8.22;85.29
52935;BME280;38802;50.198;19.796;2023-04-15T01:54:02;94975.31;;;8.15;85.06
52935;BME280;38802;50.198;19.796;2023-04-15T01:56:29;94976.84;;;8.08;85.05
52935;BME280;38802;50.198;19.796;2023-04-15T01:58:56;94968.09;;;8.04;84.88
52935;BME280;38802;50.198;19.796;2023-04-15T02:01:22;94959.80;;;8.00;84.88
52935;BME280;38802;50.198;19.796;2023-04-15T02:03:49;94957.41;;;7.98;84.83
52935;BME280;38802;50.198;19.796;2023-04-15T02:06:16;94956.23;;;7.99;85.06
52935;BME280;38802;50.198;19.796;2023-04-15T02:08:43;94962.91;;;8.04;84.90
52935;BME280;38802;50.198;19.796;2023-04-15T02:11:10;94962.33;;;8.08;84.69
52935;BME280;38802;50.198;19.796;2023-04-15T02:13:37;94966.83;;;8.02;84.60
52935;BME280;38802;50.198;19.796;2023-04-15T02:16:14;94967.52;;;7.97;84.41
52935;BME280;38802;50.198;19.796;2023-04-15T02:18:44;94966.49;;;7.93;84.40
52935;BME280;38802;50.198;19.796;2023-04-15T02:21:11;94966.95;;;7.92;84.43
52935;BME280;38802;50.198;19.796;2023-04-15T02:23:37;94971.70;;;7.91;84.42
52935;BME280;38802;50.198;19.796;2023-04-15T02:26:04;94980.11;;;7.88;84.27
52935;BME280;38802;50.198;19.796;2023-04-15T02:28:30;94985.02;;;7.83;84.13
52935;BME280;38802;50.198;19.796;2023-04-15T02:30:57;94991.42;;;7.79;84.24
52935;BME280;38802;50.198;19.796;2023-04-15T02:33:25;94987.55;;;7.74;84.06
52935;BME280;38802;50.198;19.796;2023-04-15T02:35:51;94992.92;;;7.68;83.90
52935;BME280;38802;50.198;19.796;2023-04-15T02:38:18;94994.13;;;7.63;83.80
52935;BME280;38802;50.198;19.796;2023-04-15T02:40:45;94990.64;;;7.60;83.95
52935;BME280;38802;50.198;19.796;2023-04-15T02:43:12;94993.92;;;7.55;83.80
52935;BME280;38802;50.198;19.796;2023-04-15T02:45:38;94992.83;;;7.54;83.92
52935;BME280;38802;50.198;19.796;2023-04-15T02:48:05;94997.22;;;7.51;83.88
52935;BME280;38802;50.198;19.796;2023-04-15T02:50:32;95004.30;;;7.50;83.82
52935;BME280;38802;50.198;19.796;2023-04-15T02:52:59;95010.71;;;7.48;83.74
52935;BME280;38802;50.198;19.796;2023-04-15T02:55:28;95004.27;;;7.46;83.83
52935;BME280;38802;50.198;19.796;2023-04-15T02:57:55;95004.57;;;7.51;83.89
52935;BME280;38802;50.198;19.796;2023-04-15T03:00:23;94998.21;;;7.50;83.77
52935;BME280;38802;50.198;19.796;2023-04-15T03:02:51;95000.37;;;7.51;83.70
52935;BME280;38802;50.198;19.796;2023-04-15T03:05:21;95001.05;;;7.53;83.79
52935;BME280;38802;50.198;19.796;2023-04-15T03:07:51;95001.55;;;7.63;84.11
52935;BME280;38802;50.198;19.796;2023-04-15T03:10:18;95004.44;;;7.66;83.60
52935;BME280;38802;50.198;19.796;2023-04-15T03:12:45;95000.23;;;7.68;83.63
52935;BME280;38802;50.198;19.796;2023-04-15T03:15:15;95006.45;;;7.66;83.35
52935;BME280;38802;50.198;19.796;2023-04-15T03:17:44;95012.83;;;7.57;83.16
52935;BME280;38802;50.198;19.796;2023-04-15T03:20:12;95011.50;;;7.50;83.35
52935;BME280;38802;50.198;19.796;2023-04-15T03:22:38;95013.66;;;7.45;83.23
52935;BME280;38802;50.198;19.796;2023-04-15T03:25:05;95011.55;;;7.42;83.25
52935;BME280;38802;50.198;19.796;2023-04-15T03:27:33;95016.73;;;7.42;83.26
52935;BME280;38802;50.198;19.796;2023-04-15T03:30:00;95021.05;;;7.44;83.39
52935;BME280;38802;50.198;19.796;2023-04-15T03:32:28;95027.85;;;7.47;83.24
52935;BME280;38802;50.198;19.796;2023-04-15T03:34:54;95024.86;;;7.52;83.27
52935;BME280;38802;50.198;19.796;2023-04-15T03:37:21;95034.23;;;7.53;83.02
52935;BME280;38802;50.198;19.796;2023-04-15T03:39:47;95033.95;;;7.51;83.17
52935;BME280;38802;50.198;19.796;2023-04-15T03:42:14;95037.80;;;7.48;82.92
52935;BME280;38802;50.198;19.796;2023-04-15T03:44:40;95034.29;;;7.43;82.80
52935;BME280;38802;50.198;19.796;2023-04-15T03:47:07;95025.07;;;7.45;82.85
52935;BME280;38802;50.198;19.796;2023-04-15T03:49:35;95023.34;;;7.45;82.67
52935;BME280;38802;50.198;19.796;2023-04-15T03:52:02;95028.52;;;7.40;82.57
52935;BME280;38802;50.198;19.796;2023-04-15T03:54:29;95037.20;;;7.39;82.66
52935;BME280;38802;50.198;19.796;2023-04-15T03:56:56;95041.35;;;7.49;83.04
52935;BME280;38802;50.198;19.796;2023-04-15T03:59:23;95041.48;;;7.55;82.68
52935;BME280;38802;50.198;19.796;2023-04-15T04:01:49;95039.73;;;7.44;82.28
52935;BME280;38802;50.198;19.796;2023-04-15T04:04:16;95038.51;;;7.30;82.23
52935;BME280;38802;50.198;19.796;2023-04-15T04:06:43;95050.39;;;7.15;82.14
52935;BME280;38802;50.198;19.796;2023-04-15T04:09:09;95055.98;;;7.09;82.30
52935;BME280;38802;50.198;19.796;2023-04-15T04:11:36;95056.20;;;7.10;82.47
52935;BME280;38802;50.198;19.796;2023-04-15T04:14:03;95063.78;;;7.12;82.50
52935;BME280;38802;50.198;19.796;2023-04-15T04:16:29;95069.05;;;7.17;82.63
52935;BME280;38802;50.198;19.796;2023-04-15T04:18:56;95070.22;;;7.19;82.60
52935;BME280;38802;50.198;19.796;2023-04-15T04:21:23;95066.19;;;7.20;82.39
52935;BME280;38802;50.198;19.796;2023-04-15T04:23:49;95071.06;;;7.16;82.35
52935;BME280;38802;50.198;19.796;2023-04-15T04:26:16;95065.95;;;7.16;82.70
52935;BME280;38802;50.198;19.796;2023-04-15T04:28:42;95059.55;;;7.20;82.43
52935;BME280;38802;50.198;19.796;2023-04-15T04:31:09;95061.14;;;7.22;82.61
52935;BME280;38802;50.198;19.796;2023-04-15T04:33:36;95061.35;;;7.22;82.57
52935;BME280;38802;50.198;19.796;2023-04-15T04:36:03;95066.22;;;7.24;82.62
52935;BME280;38802;50.198;19.796;2023-04-15T04:38:30;95066.06;;;7.31;82.80
52935;BME280;38802;50.198;19.796;2023-04-15T04:40:56;95071.27;;;7.29;82.43
52935;BME280;38802;50.198;19.796;2023-04-15T04:43:23;95073.75;;;7.26;82.39
52935;BME280;38802;50.198;19.796;2023-04-15T04:45:49;95073.98;;;7.23;82.25
52935;BME280;38802;50.198;19.796;2023-04-15T04:48:16;95070.69;;;7.26;82.43
52935;BME280;38802;50.198;19.796;2023-04-15T04:50:43;95071.23;;;7.31;82.37
52935;BME280;38802;50.198;19.796;2023-04-15T04:53:10;95066.10;;;7.37;82.31
52935;BME280;38802;50.198;19.796;2023-04-15T04:55:37;95069.57;;;7.45;82.37
52935;BME280;38802;50.198;19.796;2023-04-15T04:58:03;95069.05;;;7.56;82.51
52935;BME280;38802;50.198;19.796;2023-04-15T05:00:30;95069.75;;;7.60;82.05
52935;BME280;38802;50.198;19.796;2023-04-15T05:02:57;95072.70;;;7.60;81.83
52935;BME280;38802;50.198;19.796;2023-04-15T05:05:24;95078.33;;;7.63;81.86
52935;BME280;38802;50.198;19.796;2023-04-15T05:07:50;95083.37;;;7.66;81.89
52935;BME280;38802;50.198;19.796;2023-04-15T05:10:17;95080.03;;;7.74;81.97
52935;BME280;38802;50.198;19.796;2023-04-15T05:12:43;95077.90;;;7.85;81.79
52935;BME280;38802;50.198;19.796;2023-04-15T05:15:10;95078.36;;;7.95;81.86
52935;BME280;38802;50.198;19.796;2023-04-15T05:17:37;95076.13;;;8.06;81.92
52935;BME280;38802;50.198;19.796;2023-04-15T05:20:04;95080.83;;;8.13;81.89
52935;BME280;38802;50.198;19.796;2023-04-15T05:22:31;95079.64;;;8.20;81.85
52935;BME280;38802;50.198;19.796;2023-04-15T05:24:57;95080.34;;;8.32;81.90
52935;BME280;38802;50.198;19.796;2023-04-15T05:27:24;95081.51;;;8.48;82.03
52935;BME280;38802;50.198;19.796;2023-04-15T05:29:51;95088.02;;;8.60;81.85
52935;BME280;38802;50.198;19.796;2023-04-15T05:32:17;95085.98;;;8.67;81.38
52935;BME280;38802;50.198;19.796;2023-04-15T05:34:44;95085.36;;;8.64;81.08
52935;BME280;38802;50.198;19.796;2023-04-15T05:37:11;95094.20;;;8.63;80.88
52935;BME280;38802;50.198;19.796;2023-04-15T05:39:38;95094.81;;;8.57;80.61
52935;BME280;38802;50.198;19.796;2023-04-15T05:42:05;95099.36;;;8.55;80.49
52935;BME280;38802;50.198;19.796;2023-04-15T05:44:32;95096.38;;;8.54;80.46
52935;BME280;38802;50.198;19.796;2023-04-15T05:46:58;95101.95;;;8.54;80.22
52935;BME280;38802;50.198;19.796;2023-04-15T05:49:26;95104.77;;;8.51;80.02
52935;BME280;38802;50.198;19.796;2023-04-15T05:51:52;95112.75;;;8.53;79.41
52935;BME280;38802;50.198;19.796;2023-04-15T05:54:19;95109.78;;;8.64;79.30
52935;BME280;38802;50.198;19.796;2023-04-15T05:56:48;95109.73;;;8.91;79.28
52935;BME280;38802;50.198;19.796;2023-04-15T05:59:14;95104.27;;;9.21;79.30
52935;BME280;38802;50.198;19.796;2023-04-15T06:01:41;95103.95;;;9.42;78.99
52935;BME280;38802;50.198;19.796;2023-04-15T06:04:08;95103.67;;;9.47;78.24
52935;BME280;38802;50.198;19.796;2023-04-15T06:06:35;95110.17;;;9.46;77.90
52935;BME280;38802;50.198;19.796;2023-04-15T06:09:01;95104.55;;;9.40;77.58
52935;BME280;38802;50.198;19.796;2023-04-15T06:11:28;95108.51;;;9.39;77.65
52935;BME280;38802;50.198;19.796;2023-04-15T06:13:55;95108.11;;;9.43;77.31
52935;BME280;38802;50.198;19.796;2023-04-15T06:16:21;95108.63;;;9.56;77.48
52935;BME280;38802;50.198;19.796;2023-04-15T06:18:48;95113.23;;;9.64;76.91
52935;BME280;38802;50.198;19.796;2023-04-15T06:21:15;95115.71;;;9.68;77.10
52935;BME280;38802;50.198;19.796;2023-04-15T06:23:41;95113.66;;;9.68;76.49
52935;BME280;38802;50.198;19.796;2023-04-15T06:26:08;95114.23;;;9.64;76.05
52935;BME280;38802;50.198;19.796;2023-04-15T06:28:34;95122.16;;;9.59;76.12
52935;BME280;38802;50.198;19.796;2023-04-15T06:31:02;95121.58;;;9.54;76.01
52935;BME280;38802;50.198;19.796;2023-04-15T06:33:28;95123.69;;;9.52;76.21
52935;BME280;38802;50.198;19.796;2023-04-15T06:35:55;95128.98;;;9.53;76.33
52935;BME280;38802;50.198;19.796;2023-04-15T06:38:21;95137.68;;;9.54;75.82
52935;BME280;38802;50.198;19.796;2023-04-15T06:40:48;95138.99;;;9.52;75.77
52935;BME280;38802;50.198;19.796;2023-04-15T06:43:15;95138.84;;;9.49;75.47
52935;BME280;38802;50.198;19.796;2023-04-15T06:45:41;95145.52;;;9.45;75.37
52935;BME280;38802;50.198;19.796;2023-04-15T06:48:08;95147.58;;;9.43;75.57
52935;BME280;38802;50.198;19.796;2023-04-15T06:50:35;95146.06;;;9.41;75.20
52935;BME280;38802;50.198;19.796;2023-04-15T06:53:01;95148.41;;;9.38;74.86
52935;BME280;38802;50.198;19.796;2023-04-15T06:55:29;95149.91;;;9.35;74.50
52935;BME280;38802;50.198;19.796;2023-04-15T06:57:57;95150.66;;;9.27;74.22
52935;BME280;38802;50.198;19.796;2023-04-15T07:00:23;95152.48;;;9.25;74.37
52935;BME280;38802;50.198;19.796;2023-04-15T07:02:50;95158.55;;;9.21;74.53
52935;BME280;38802;50.198;19.796;2023-04-15T07:05:17;95162.40;;;9.20;74.63
52935;BME280;38802;50.198;19.796;2023-04-15T07:07:44;95163.61;;;9.19;74.67
52935;BME280;38802;50.198;19.796;2023-04-15T07:10:11;95167.69;;;9.20;74.48
52935;BME280;38802;50.198;19.796;2023-04-15T07:12:38;95168.30;;;9.19;74.54
52935;BME280;38802;50.198;19.796;2023-04-15T07:15:05;95170.18;;;9.19;74.35
52935;BME280;38802;50.198;19.796;2023-04-15T07:17:32;95177.60;;;9.17;74.56
52935;BME280;38802;50.198;19.796;2023-04-15T07:19:58;95179.33;;;9.18;74.47
52935;BME280;38802;50.198;19.796;2023-04-15T07:22:25;95180.86;;;9.16;74.51
52935;BME280;38802;50.198;19.796;2023-04-15T07:24:51;95182.77;;;9.14;74.30
52935;BME280;38802;50.198;19.796;2023-04-15T07:27:18;95176.97;;;9.11;74.32
52935;BME280;38802;50.198;19.796;2023-04-15T07:29:45;95181.15;;;9.07;74.27
52935;BME280;38802;50.198;19.796;2023-04-15T07:32:12;95181.48;;;9.05;74.42
52935;BME280;38802;50.198;19.796;2023-04-15T07:34:38;95183.36;;;9.07;74.59
52935;BME280;38802;50.198;19.796;2023-04-15T07:37:05;95183.30;;;9.10;74.22
52935;BME280;38802;50.198;19.796;2023-04-15T07:39:31;95180.02;;;9.06;74.04
52935;BME280;38802;50.198;19.796;2023-04-15T07:41:58;95177.36;;;9.03;74.28
52935;BME280;38802;50.198;19.796;2023-04-15T07:44:25;95174.80;;;9.04;74.42
52935;BME280;38802;50.198;19.796;2023-04-15T07:46:52;95175.69;;;9.04;74.22
52935;BME280;38802;50.198;19.796;2023-04-15T07:49:19;95175.60;;;8.97;74.68
52935;BME280;38802;50.198;19.796;2023-04-15T07:51:47;95174.19;;;8.91;74.70
52935;BME280;38802;50.198;19.796;2023-04-15T07:54:14;95179.86;;;8.91;74.86
52935;BME280;38802;50.198;19.796;2023-04-15T07:56:41;95184.66;;;8.93;74.95
52935;BME280;38802;50.198;19.796;2023-04-15T07:59:08;95188.27;;;8.95;75.09
52935;BME280;38802;50.198;19.796;2023-04-15T08:01:35;95193.05;;;9.00;75.27
52935;BME280;38802;50.198;19.796;2023-04-15T08:04:02;95191.46;;;9.06;75.27
52935;BME280;38802;50.198;19.796;2023-04-15T08:06:29;95193.13;;;9.14;75.54
52935;BME280;38802;50.198;19.796;2023-04-15T08:08:56;95189.45;;;9.21;75.54
52935;BME280;38802;50.198;19.796;2023-04-15T08:11:23;95193.36;;;9.28;75.67
52935;BME280;38802;50.198;19.796;2023-04-15T08:13:51;95191.85;;;9.41;75.59
52935;BME280;38802;50.198;19.796;2023-04-15T08:16:22;95196.48;;;9.47;75.85
52935;BME280;38802;50.198;19.796;2023-04-15T08:18:55;95201.77;;;9.52;75.73
52935;BME280;38802;50.198;19.796;2023-04-15T08:21:22;95207.19;;;9.60;75.86
52935;BME280;38802;50.198;19.796;2023-04-15T08:23:50;95207.38;;;9.65;75.55
52935;BME280;38802;50.198;19.796;2023-04-15T08:26:19;95209.09;;;9.76;75.67
52935;BME280;38802;50.198;19.796;2023-04-15T08:28:48;95208.11;;;9.89;75.60
52935;BME280;38802;50.198;19.796;2023-04-15T08:31:16;95202.64;;;10.02;75.40
52935;BME280;38802;50.198;19.796;2023-04-15T08:33:43;95207.29;;;10.24;75.44
52935;BME280;38802;50.198;19.796;2023-04-15T08:36:09;95211.20;;;10.45;75.19
52935;BME280;38802;50.198;19.796;2023-04-15T08:38:36;95208.42;;;10.62;75.05
52935;BME280;38802;50.198;19.796;2023-04-15T08:41:06;95206.97;;;10.86;75.02
52935;BME280;38802;50.198;19.796;2023-04-15T08:43:37;95205.64;;;11.08;73.52
52935;BME280;38802;50.198;19.796;2023-04-15T08:46:08;95204.93;;;11.21;73.81
52935;BME280;38802;50.198;19.796;2023-04-15T08:48:37;95204.13;;;11.38;73.50
52935;BME280;38802;50.198;19.796;2023-04-15T08:51:04;95206.72;;;11.50;73.34
52935;BME280;38802;50.198;19.796;2023-04-15T08:53:31;95208.38;;;11.66;72.44
52935;BME280;38802;50.198;19.796;2023-04-15T08:56:02;95206.92;;;11.77;72.78
52935;BME280;38802;50.198;19.796;2023-04-15T08:58:30;95206.30;;;11.82;71.98
52935;BME280;38802;50.198;19.796;2023-04-15T09:00:57;95210.71;;;11.86;71.27
52935;BME280;38802;50.198;19.796;2023-04-15T09:03:24;95211.42;;;11.84;71.09
52935;BME280;38802;50.198;19.796;2023-04-15T09:05:51;95209.90;;;11.89;71.29
52935;BME280;38802;50.198;19.796;2023-04-15T09:08:19;95210.63;;;11.95;70.78
52935;BME280;38802;50.198;19.796;2023-04-15T09:10:46;95215.47;;;11.99;70.29
52935;BME280;38802;50.198;19.796;2023-04-15T09:13:13;95213.77;;;12.10;68.68
52935;BME280;38802;50.198;19.796;2023-04-15T09:15:39;95209.77;;;12.23;68.61
52935;BME280;38802;50.198;19.796;2023-04-15T09:18:06;95205.45;;;12.33;68.08
52935;BME280;38802;50.198;19.796;2023-04-15T09:20:41;95205.30;;;12.38;67.27
52935;BME280;38802;50.198;19.796;2023-04-15T09:23:13;95202.10;;;12.43;67.05
52935;BME280;38802;50.198;19.796;2023-04-15T09:25:40;95199.40;;;12.52;67.81
52935;BME280;38802;50.198;19.796;2023-04-15T09:28:08;95197.48;;;12.62;66.92
52935;BME280;38802;50.198;19.796;2023-04-15T09:30:34;95201.14;;;12.67;67.40
52935;BME280;38802;50.198;19.796;2023-04-15T09:33:05;95196.92;;;12.77;67.36
52935;BME280;38802;50.198;19.796;2023-04-15T09:35:36;95203.58;;;12.86;67.12
52935;BME280;38802;50.198;19.796;2023-04-15T09:38:04;95206.36;;;12.85;65.39
52935;BME280;38802;50.198;19.796;2023-04-15T09:42:59;95205.98;;;12.75;66.01
52935;BME280;38802;50.198;19.796;2023-04-15T09:45:28;95206.27;;;12.77;66.10
52935;BME280;38802;50.198;19.796;2023-04-15T09:48:14;95203.88;;;12.83;66.13
52935;BME280;38802;50.198;19.796;2023-04-15T09:50:41;95205.95;;;12.98;65.30
52935;BME280;38802;50.198;19.796;2023-04-15T09:53:10;95212.10;;;13.06;64.51
52935;BME280;38802;50.198;19.796;2023-04-15T09:55:37;95208.46;;;13.09;64.46
52935;BME280;38802;50.198;19.796;2023-04-15T09:58:08;95211.05;;;13.17;64.16
52935;BME280;38802;50.198;19.796;2023-04-15T10:00:36;95210.21;;;13.28;63.56
52935;BME280;38802;50.198;19.796;2023-04-15T10:03:04;95212.97;;;13.27;62.97
52935;BME280;38802;50.198;19.796;2023-04-15T10:05:32;95211.44;;;13.15;61.98
52935;BME280;38802;50.198;19.796;2023-04-15T10:08:00;95210.76;;;12.95;62.50
52935;BME280;38802;50.198;19.796;2023-04-15T10:10:27;95210.77;;;12.84;62.89
52935;BME280;38802;50.198;19.796;2023-04-15T10:12:54;95211.95;;;12.80;63.52
52935;BME280;38802;50.198;19.796;2023-04-15T10:15:22;95207.27;;;12.78;64.04
52935;BME280;38802;50.198;19.796;2023-04-15T10:17:52;95209.73;;;12.79;62.93
52935;BME280;38802;50.198;19.796;2023-04-15T10:20:19;95210.55;;;12.72;62.88
52935;BME280;38802;50.198;19.796;2023-04-15T10:22:48;95204.24;;;12.70;63.12
52935;BME280;38802;50.198;19.796;2023-04-15T10:25:15;95208.04;;;12.75;62.82
52935;BME280;38802;50.198;19.796;2023-04-15T10:27:42;95205.34;;;12.81;62.98
52935;BME280;38802;50.198;19.796;2023-04-15T10:30:09;95201.28;;;12.88;62.68
52935;BME280;38802;50.198;19.796;2023-04-15T10:32:37;95203.14;;;12.90;62.47
52935;BME280;38802;50.198;19.796;2023-04-15T10:35:04;95203.11;;;12.92;62.55
52935;BME280;38802;50.198;19.796;2023-04-15T10:37:37;95202.94;;;12.97;62.03
52935;BME280;38802;50.198;19.796;2023-04-15T10:42:54;95203.23;;;13.00;62.50
52935;BME280;38802;50.198;19.796;2023-04-15T10:45:24;95203.58;;;13.03;62.36
52935;BME280;38802;50.198;19.796;2023-04-15T10:48:30;95200.33;;;13.10;62.43
52935;BME280;38802;50.198;19.796;2023-04-15T10:50:58;95200.77;;;13.15;62.33
52935;BME280;38802;50.198;19.796;2023-04-15T10:53:27;95201.43;;;13.22;61.97
52935;BME280;38802;50.198;19.796;2023-04-15T10:55:56;95204.46;;;13.27;61.29
52935;BME280;38802;50.198;19.796;2023-04-15T10:58:24;95203.69;;;13.26;60.42
52935;BME280;38802;50.198;19.796;2023-04-15T11:00:52;95202.91;;;13.23;61.06
52935;BME280;38802;50.198;19.796;2023-04-15T11:03:35;95206.51;;;13.20;60.61
52935;BME280;38802;50.198;19.796;2023-04-15T11:06:04;95205.09;;;13.24;60.39
52935;BME280;38802;50.198;19.796;2023-04-15T11:08:55;95201.23;;;13.23;60.83
52935;BME280;38802;50.198;19.796;2023-04-15T11:11:22;95204.31;;;13.16;60.90
52935;BME280;38802;50.198;19.796;2023-04-15T11:13:50;95204.90;;;13.09;60.81
52935;BME280;38802;50.198;19.796;2023-04-15T11:16:18;95208.54;;;13.03;61.13
52935;BME280;38802;50.198;19.796;2023-04-15T11:18:54;95207.65;;;12.94;60.80
52935;BME280;38802;50.198;19.796;2023-04-15T11:21:24;95209.30;;;12.82;60.69
52935;BME280;38802;50.198;19.796;2023-04-15T11:23:51;95211.60;;;12.70;61.02
52935;BME280;38802;50.198;19.796;2023-04-15T11:26:18;95212.29;;;12.64;60.83
52935;BME280;38802;50.198;19.796;2023-04-15T11:28:45;95209.75;;;12.56;60.86
52935;BME280;38802;50.198;19.796;2023-04-15T11:31:13;95210.02;;;12.55;60.50
52935;BME280;38802;50.198;19.796;2023-04-15T11:34:01;95214.52;;;12.51;60.80
52935;BME280;38802;50.198;19.796;2023-04-15T11:36:31;95215.08;;;12.49;60.39
52935;BME280;38802;50.198;19.796;2023-04-15T11:38:58;95216.88;;;12.48;61.10
52935;BME280;38802;50.198;19.796;2023-04-15T11:41:25;95217.85;;;12.49;60.61
52935;BME280;38802;50.198;19.796;2023-04-15T11:43:52;95217.77;;;12.45;60.14
52935;BME280;38802;50.198;19.796;2023-04-15T11:46:19;95221.17;;;12.44;60.59
52935;BME280;38802;50.198;19.796;2023-04-15T11:48:47;95220.47;;;12.55;60.83
52935;BME280;38802;50.198;19.796;2023-04-15T11:51:13;95226.10;;;12.70;60.59
52935;BME280;38802;50.198;19.796;2023-04-15T11:53:45;95227.73;;;12.77;60.57
52935;BME280;38802;50.198;19.796;2023-04-15T11:56:20;95228.29;;;12.85;60.93
52935;BME280;38802;50.198;19.796;2023-04-15T11:58:48;95230.34;;;12.97;61.12
52935;BME280;38802;50.198;19.796;2023-04-15T12:01:18;95232.58;;;13.04;60.38
52935;BME280;38802;50.198;19.796;2023-04-15T12:03:45;95236.63;;;13.05;60.30
52935;BME280;38802;50.198;19.796;2023-04-15T12:06:23;95233.31;;;13.03;59.43
52935;BME280;38802;50.198;19.796;2023-04-15T12:11:16;95234.42;;;12.95;59.22
52935;BME280;38802;50.198;19.796;2023-04-15T12:13:48;95237.56;;;12.86;59.43
52935;BME280;38802;50.198;19.796;2023-04-15T12:16:18;95234.66;;;12.84;59.64
52935;BME280;38802;50.198;19.796;2023-04-15T12:18:46;95237.02;;;12.81;59.76
52935;BME280;38802;50.198;19.796;2023-04-15T12:21:13;95244.99;;;12.74;59.90
52935;BME280;38802;50.198;19.796;2023-04-15T12:23:51;95241.00;;;12.62;60.29
52935;BME280;38802;50.198;19.796;2023-04-15T12:26:25;95246.66;;;12.58;60.27
52935;BME280;38802;50.198;19.796;2023-04-15T12:29:07;95253.84;;;12.53;60.53
52935;BME280;38802;50.198;19.796;2023-04-15T12:31:34;95258.67;;;12.51;60.74
52935;BME280;38802;50.198;19.796;2023-04-15T12:34:05;95263.52;;;12.45;60.79
52935;BME280;38802;50.198;19.796;2023-04-15T12:36:33;95262.58;;;12.31;60.93
52935;BME280;38802;50.198;19.796;2023-04-15T12:39:03;95265.05;;;12.09;61.34
52935;BME280;38802;50.198;19.796;2023-04-15T12:41:31;95263.61;;;11.88;61.73
52935;BME280;38802;50.198;19.796;2023-04-15T12:43:58;95265.79;;;11.66;61.98
52935;BME280;38802;50.198;19.796;2023-04-15T12:46:26;95267.60;;;11.50;62.48
52935;BME280;38802;50.198;19.796;2023-04-15T12:48:53;95269.80;;;11.46;62.50
52935;BME280;38802;50.198;19.796;2023-04-15T12:51:19;95266.13;;;11.49;62.93
52935;BME280;38802;50.198;19.796;2023-04-15T12:53:49;95264.02;;;11.49;63.31
52935;BME280;38802;50.198;19.796;2023-04-15T12:56:16;95261.92;;;11.51;63.71
52935;BME280;38802;50.198;19.796;2023-04-15T12:58:43;95261.23;;;11.53;63.94
52935;BME280;38802;50.198;19.796;2023-04-15T13:01:10;95262.95;;;11.53;64.12
52935;BME280;38802;50.198;19.796;2023-04-15T13:03:36;95264.33;;;11.46;64.16
52935;BME280;38802;50.198;19.796;2023-04-15T13:06:03;95262.69;;;11.45;64.37
52935;BME280;38802;50.198;19.796;2023-04-15T13:08:31;95263.22;;;11.47;64.24